Time;durP1;ratioP1;P1;durP2;ratioP2;P2;SDS_P1;SDS_P2;PMS_P1;PMS_P2;Temp;Humidity;BMP_temperature;BMP_pressure;BME280_temperature;BME280_humidity;BME280_pressure;Samples;Min_cycle;Max_cycle;Signal;HPM_P1;HPM_P2
2022/11/09 00:01:30;;;;;;;4.32;1.65;;;15.80;99.90;;;;;;5112741;28;20024;-74
2022/11/09 00:03:58;;;;;;;5.13;1.98;;;15.70;99.90;;;;;;5095522;28;20468;-74
2022/11/09 00:06:25;;;;;;;4.82;1.55;;;15.70;99.90;;;;;;5113839;28;20035;-74
2022/11/09 00:08:51;;;;;;;4.80;1.80;;;15.60;99.90;;;;;;5112266;28;20030;-73
2022/11/09 00:11:19;;;;;;;4.90;1.55;;;15.60;99.90;;;;;;5112193;28;20468;-73
2022/11/09 00:13:46;;;;;;;5.53;1.60;;;15.60;99.90;;;;;;5099654;28;20020;-74
2022/11/09 00:16:16;;;;;;;8.85;1.90;;;15.60;99.90;;;;;;5092960;28;20051;-73
2022/11/09 00:18:46;;;;;;;3.92;1.67;;;15.50;99.90;;;;;;5093417;28;20111;-74
2022/11/09 00:21:18;;;;;;;8.25;2.00;;;15.50;99.90;;;;;;5093179;28;20387;-75
2022/11/09 00:23:44;;;;;;;6.07;1.88;;;15.50;99.90;;;;;;5092963;28;20078;-75
2022/11/09 00:26:13;;;;;;;5.25;1.73;;;15.50;99.90;;;;;;5093072;28;20071;-75
2022/11/09 00:28:39;;;;;;;5.93;1.70;;;15.50;99.90;;;;;;5093544;28;20016;-75
2022/11/09 00:31:09;;;;;;;5.20;1.45;;;15.50;99.90;;;;;;5074350;28;20035;-74
2022/11/09 00:33:36;;;;;;;5.22;1.60;;;15.50;99.90;;;;;;5093002;28;20107;-75
2022/11/09 00:36:07;;;;;;;7.78;1.83;;;15.50;99.90;;;;;;5093449;28;20028;-76
2022/11/09 00:38:39;;;;;;;5.53;2.00;;;15.50;99.90;;;;;;5093070;28;20107;-71
2022/11/09 00:41:07;;;;;;;5.90;1.77;;;15.50;99.90;;;;;;5092800;28;20131;-75
2022/11/09 00:43:33;;;;;;;4.82;1.70;;;15.50;99.90;;;;;;5092526;28;20105;-76
2022/11/09 00:45:59;;;;;;;6.95;2.05;;;15.50;99.90;;;;;;5092626;28;20055;-74
2022/11/09 00:48:26;;;;;;;3.83;1.93;;;15.40;99.90;;;;;;5092796;28;20048;-74
2022/11/09 00:50:56;;;;;;;7.40;2.30;;;15.40;99.90;;;;;;5092448;28;20016;-75
2022/11/09 00:53:23;;;;;;;6.22;1.80;;;15.40;99.90;;;;;;5092380;28;20058;-74
2022/11/09 00:56:16;;;;;;;4.70;1.80;;;15.40;99.90;;;;;;5092596;28;20025;-75
2022/11/09 00:58:42;;;;;;;5.50;1.73;;;15.40;99.90;;;;;;5073189;28;20146;-75
2022/11/09 01:01:14;;;;;;;3.37;1.70;;;15.40;99.90;;;;;;5092578;28;20028;-73
2022/11/09 01:03:40;;;;;;;5.13;1.50;;;15.40;99.90;;;;;;5092812;28;20308;-74
2022/11/09 01:06:21;;;;;;;8.35;1.73;;;15.30;99.90;;;;;;5092129;28;20032;-74
2022/11/09 01:08:48;;;;;;;4.97;1.77;;;15.30;99.90;;;;;;5092212;28;20078;-74
2022/11/09 01:11:16;;;;;;;10.35;1.95;;;15.30;99.90;;;;;;5092115;28;20101;-75
2022/11/09 01:13:43;;;;;;;5.90;1.98;;;15.40;99.90;;;;;;5092107;28;20066;-73
2022/11/09 01:16:14;;;;;;;4.43;2.00;;;15.40;99.90;;;;;;5073990;28;20093;-74
2022/11/09 01:18:40;;;;;;;4.55;1.90;;;15.40;99.90;;;;;;5057339;28;20032;-75
2022/11/09 01:21:09;;;;;;;4.65;2.20;;;15.40;99.90;;;;;;5073756;28;20122;-75
2022/11/09 01:23:36;;;;;;;4.57;2.20;;;15.40;99.90;;;;;;5092016;28;20028;-74
2022/11/09 01:26:09;;;;;;;4.63;2.10;;;15.30;99.90;;;;;;5091815;28;20047;-75
2022/11/09 01:28:35;;;;;;;4.22;2.13;;;15.30;99.90;;;;;;5092438;28;20020;-74
2022/11/09 01:31:04;;;;;;;7.20;2.63;;;15.20;99.90;;;;;;5092076;28;20433;-74
2022/11/09 01:33:30;;;;;;;5.72;2.50;;;15.20;99.90;;;;;;5092039;28;20035;-75
2022/11/09 01:36:20;;;;;;;6.15;2.33;;;15.20;99.90;;;;;;5092041;28;20020;-75
2022/11/09 01:38:47;;;;;;;5.53;2.35;;;15.20;99.90;;;;;;5092011;28;20024;-74
2022/11/09 01:41:25;;;;;;;6.65;2.63;;;15.10;99.90;;;;;;5091715;28;20085;-74
2022/11/09 01:44:10;;;;;;;5.32;2.55;;;15.10;99.90;;;;;;5091832;28;20024;-74
2022/11/09 01:46:57;;;;;;;7.63;2.67;;;15.10;99.90;;;;;;5091841;28;20032;-74
2022/11/09 01:49:41;;;;;;;10.75;3.63;;;15.10;99.90;;;;;;5091605;28;20028;-74
2022/11/09 01:52:20;;;;;;;11.00;2.80;;;15.10;99.90;;;;;;5088713;28;20423;-72
2022/11/09 01:54:59;;;;;;;8.40;3.05;;;15.00;99.90;;;;;;5089975;28;20051;-74
2022/11/09 01:57:30;;;;;;;8.88;3.30;;;15.00;99.90;;;;;;5089471;28;20202;-75
2022/11/09 02:00:10;;;;;;;9.02;2.97;;;15.00;99.90;;;;;;5073161;28;20337;-75
2022/11/09 02:02:39;;;;;;;8.02;3.10;;;15.00;99.90;;;;;;5093388;28;20484;-72
2022/11/09 02:05:11;;;;;;;7.82;3.33;;;15.00;99.90;;;;;;5089588;28;20058;-70
2022/11/09 02:07:39;;;;;;;8.80;3.45;;;15.00;99.90;;;;;;5090281;28;20073;-73
2022/11/09 02:10:25;;;;;;;6.00;3.35;;;15.00;99.90;;;;;;5092034;28;20024;-68
2022/11/09 02:12:53;;;;;;;11.45;3.55;;;15.00;99.90;;;;;;5094241;28;20028;-75
2022/11/09 02:15:20;;;;;;;6.80;3.40;;;15.00;99.90;;;;;;5098846;28;20112;-75
2022/11/09 02:17:50;;;;;;;;;;;15.00;99.90;;;;;;5101731;28;20149;-74
2022/11/09 02:20:17;;;;;;;8.80;3.55;;;15.00;99.90;;;;;;5083556;28;20295;-71
2022/11/09 02:22:45;;;;;;;6.60;3.60;;;15.00;99.90;;;;;;5070967;28;20051;-75
2022/11/09 02:25:14;;;;;;;6.07;3.45;;;14.90;99.90;;;;;;5056120;28;20057;-75
2022/11/09 02:27:43;;;;;;;6.25;3.47;;;14.90;99.90;;;;;;5056664;28;20032;-74
2022/11/09 02:30:11;;;;;;;7.07;3.28;;;14.80;99.90;;;;;;5075291;28;20483;-74
2022/11/09 02:32:38;;;;;;;7.20;3.30;;;14.80;99.90;;;;;;5057356;28;20037;-73
2022/11/09 02:35:05;;;;;;;6.00;3.72;;;14.80;99.90;;;;;;5057033;28;20033;-74
2022/11/09 02:37:39;;;;;;;5.95;3.28;;;14.80;99.90;;;;;;5074718;28;20031;-75
2022/11/09 02:40:20;;;;;;;7.93;3.80;;;14.90;99.90;;;;;;5075341;28;20025;-75
2022/11/09 02:42:46;;;;;;;6.47;3.28;;;14.80;99.90;;;;;;5074806;28;20021;-75
2022/11/09 02:45:13;;;;;;;;;;;14.80;99.90;;;;;;5075153;28;20043;-75
2022/11/09 02:47:39;;;;;;;12.90;4.50;;;14.90;99.90;;;;;;5074664;28;19909;-75
2022/11/09 02:50:07;;;;;;;9.70;3.93;;;14.80;99.90;;;;;;5074632;28;20266;-73
2022/11/09 02:52:33;;;;;;;6.30;3.88;;;14.80;99.90;;;;;;5074397;28;20028;-73
2022/11/09 02:54:59;;;;;;;12.40;4.53;;;14.80;99.90;;;;;;5074732;28;20398;-74
2022/11/09 02:57:25;;;;;;;7.97;4.30;;;14.80;99.90;;;;;;5074862;28;20074;-74
2022/11/09 02:59:51;;;;;;;6.33;3.77;;;14.70;99.90;;;;;;5074761;28;20047;-74
2022/11/09 03:02:17;;;;;;;6.70;4.10;;;14.70;99.90;;;;;;5074689;28;20445;-74
2022/11/09 03:04:43;;;;;;;9.03;4.10;;;14.70;99.90;;;;;;5074403;28;20024;-74
2022/11/09 03:07:09;;;;;;;6.57;4.10;;;14.70;99.90;;;;;;5074620;28;20051;-75
2022/11/09 03:09:35;;;;;;;9.07;4.37;;;14.70;99.90;;;;;;5074784;28;20108;-76
2022/11/09 03:12:27;;;;;;;6.30;3.63;;;14.70;99.90;;;;;;5074257;28;20024;-75
2022/11/09 03:14:50;;;;;;;7.88;3.67;;;14.70;99.90;;;;;;5073826;28;20500;-71
2022/11/09 03:17:17;;;;;;;7.27;3.43;;;14.70;99.90;;;;;;5074361;28;20024;-73
2022/11/09 03:19:43;;;;;;;9.50;3.80;;;14.80;99.90;;;;;;5073781;28;20036;-74
2022/11/09 03:22:09;;;;;;;9.40;3.72;;;14.80;99.90;;;;;;5073404;28;20056;-75
2022/11/09 03:24:36;;;;;;;6.27;3.53;;;14.70;99.90;;;;;;5075089;28;20028;-73
2022/11/09 03:27:03;;;;;;;5.40;3.40;;;14.70;99.90;;;;;;5114330;28;20281;-74
2022/11/09 03:29:29;;;;;;;8.32;3.20;;;14.70;99.90;;;;;;5114854;28;20055;-74
2022/11/09 03:31:55;;;;;;;5.43;2.93;;;14.80;99.90;;;;;;5114780;28;20063;-73
2022/11/09 03:34:21;;;;;;;4.53;2.53;;;14.80;99.90;;;;;;5108315;28;20021;-75
2022/11/09 03:36:47;;;;;;;5.37;3.20;;;14.90;99.90;;;;;;5108692;28;20468;-74
2022/11/09 03:39:13;;;;;;;7.17;3.30;;;14.90;99.90;;;;;;5114357;28;20322;-74
2022/11/09 03:41:39;;;;;;;6.93;3.37;;;14.90;99.90;;;;;;5114630;28;20042;-74
2022/11/09 03:44:07;;;;;;;4.53;2.90;;;14.90;99.90;;;;;;5114784;28;20421;-75
2022/11/09 03:46:33;;;;;;;5.30;2.72;;;14.90;99.90;;;;;;5114233;28;20399;-73
2022/11/09 03:49:01;;;;;;;5.78;3.28;;;14.90;99.90;;;;;;5095701;28;20023;-73
2022/11/09 03:51:27;;;;;;;7.35;3.20;;;14.90;99.90;;;;;;5113870;28;20149;-74
2022/11/09 03:54:05;;;;;;;9.70;3.80;;;15.00;99.90;;;;;;5113719;28;20131;-73
2022/11/09 03:56:31;;;;;;;7.38;3.42;;;14.90;99.90;;;;;;5114328;28;20034;-74
2022/11/09 03:58:57;;;;;;;5.63;2.93;;;14.90;99.90;;;;;;5114558;28;20301;-74
2022/11/09 04:01:23;;;;;;;7.40;3.50;;;14.80;99.90;;;;;;5114225;28;20051;-74
2022/11/09 04:03:49;;;;;;;11.77;3.53;;;14.80;99.90;;;;;;5114028;28;20031;-74
2022/11/09 04:06:15;;;;;;;9.53;3.77;;;14.90;99.90;;;;;;5114267;28;20040;-74
2022/11/09 04:08:41;;;;;;;6.60;3.50;;;14.90;99.90;;;;;;5115126;28;20280;-75
2022/11/09 04:11:07;;;;;;;6.43;3.30;;;14.90;99.90;;;;;;5114494;28;20069;-74
2022/11/09 04:13:33;;;;;;;6.07;3.00;;;14.90;99.90;;;;;;5114424;28;20253;-74
2022/11/09 04:15:59;;;;;;;6.73;3.40;;;14.90;99.90;;;;;;5114413;28;20074;-75
2022/11/09 04:18:26;;;;;;;6.03;3.53;;;14.90;99.90;;;;;;5114264;28;20051;-73
2022/11/09 04:20:52;;;;;;;6.47;3.50;;;14.90;99.90;;;;;;5079027;28;20079;-74
2022/11/09 04:23:18;;;;;;;7.82;2.85;;;14.80;99.90;;;;;;5079735;28;20081;-75
2022/11/09 04:25:44;;;;;;;7.43;3.13;;;14.80;99.90;;;;;;5114729;28;20031;-74
2022/11/09 04:28:11;;;;;;;6.90;3.37;;;14.90;99.90;;;;;;5115473;28;20028;-74
2022/11/09 04:30:38;;;;;;;7.55;3.25;;;14.80;99.90;;;;;;5115362;28;20355;-73
2022/11/09 04:33:04;;;;;;;7.55;2.65;;;14.80;99.90;;;;;;5114650;28;20112;-73
2022/11/09 04:35:32;;;;;;;6.50;3.10;;;15.00;99.90;;;;;;5114765;28;20024;-73
2022/11/09 04:38:03;;;;;;;4.50;2.45;;;15.00;99.90;;;;;;5114799;28;20031;-75
2022/11/09 04:40:32;;;;;;;6.13;2.72;;;15.00;99.90;;;;;;5114631;28;20108;-74
2022/11/09 04:43:04;;;;;;;7.55;3.28;;;15.10;99.90;;;;;;5114495;28;20495;-74
2022/11/09 04:45:32;;;;;;;5.20;3.20;;;15.10;99.90;;;;;;5114674;28;20027;-74
2022/11/09 04:47:58;;;;;;;7.47;3.13;;;15.10;99.90;;;;;;5114323;28;20024;-74
2022/11/09 04:50:24;;;;;;;;;;;15.00;99.90;;;;;;5114813;28;20098;-73
2022/11/09 04:52:50;;;;;;;7.03;3.55;;;14.90;99.90;;;;;;5114856;28;19994;-74
2022/11/09 04:55:17;;;;;;;7.50;3.55;;;14.90;99.90;;;;;;5111694;28;20022;-74
2022/11/09 04:57:43;;;;;;;4.78;3.05;;;14.80;99.90;;;;;;5082324;28;20028;-71
2022/11/09 05:00:09;;;;;;;5.80;3.03;;;14.80;99.90;;;;;;5087263;28;20020;-74
2022/11/09 05:02:38;;;;;;;6.63;3.55;;;14.80;99.90;;;;;;5085716;28;20028;-72
2022/11/09 05:05:04;;;;;;;6.78;3.53;;;14.80;99.90;;;;;;5092536;28;20561;-74
2022/11/09 05:07:30;;;;;;;7.75;4.18;;;14.70;99.90;;;;;;5093212;28;20097;-78
2022/11/09 05:09:56;;;;;;;7.25;3.53;;;14.80;99.90;;;;;;5093095;28;20028;-77
2022/11/09 05:12:22;;;;;;;7.65;3.72;;;14.80;99.90;;;;;;5092860;28;20024;-74
2022/11/09 05:14:48;;;;;;;8.10;4.00;;;14.80;99.90;;;;;;5093378;28;20039;-76
2022/11/09 05:17:22;;;;;;;7.63;4.20;;;14.80;99.90;;;;;;5085078;28;20049;-72
2022/11/09 05:19:48;;;;;;;9.60;4.55;;;14.80;99.90;;;;;;5073502;28;20104;-77
2022/11/09 05:24:58;;;;;;;6.93;4.00;;;14.80;99.90;;;;;;5073634;28;20388;-76
2022/11/09 05:27:24;;;;;;;7.87;4.33;;;14.80;99.90;;;;;;5073479;28;20115;-76
2022/11/09 05:29:50;;;;;;;8.03;4.53;;;14.80;99.90;;;;;;5073491;28;20029;-76
2022/11/09 05:35:47;;;;;;;8.25;4.50;;;14.80;99.90;;;;;;5073680;28;20047;-77
2022/11/09 05:38:13;;;;;;;7.18;4.68;;;14.80;99.90;;;;;;5038986;28;20111;-76
2022/11/09 05:40:52;;;;;;;6.63;3.80;;;14.80;99.90;;;;;;5073866;28;20094;-78
2022/11/09 05:43:49;;;;;;;11.43;5.65;;;14.80;99.90;;;;;;5039047;28;20021;-77
2022/11/09 05:50:10;;;;;;;5.40;4.30;;;14.80;99.90;;;;;;5073188;28;20039;-77
2022/11/09 05:52:45;;;;;;;7.15;4.38;;;14.80;99.90;;;;;;5011036;28;20080;-76
2022/11/09 05:55:47;;;;;;;8.18;4.70;;;14.80;99.90;;;;;;5011188;28;20033;-76
2022/11/09 06:00:51;;;;;;;9.37;4.70;;;14.90;99.90;;;;;;5983646;22;20048;-77
2022/11/09 06:03:47;;;;;;;8.93;4.88;;;14.90;99.90;;;;;;5086484;22;20052;-78
2022/11/09 06:09:38;;;;;;;9.52;4.90;;;15.10;99.90;;;;;;5076234;23;20515;-78
2022/11/09 06:12:48;;;;;;;9.98;4.47;;;15.50;99.90;;;;;;5053733;28;20020;-78
2022/11/09 06:15:18;;;;;;;8.35;4.65;;;15.90;99.90;;;;;;5072046;28;20021;-77
2022/11/09 06:20:27;;;;;;;8.07;4.38;;;16.40;99.90;;;;;;5067088;22;20086;-76
2022/11/09 06:23:03;;;;;;;7.22;3.90;;;16.50;99.90;;;;;;5049621;28;20029;-78
2022/11/09 06:25:49;;;;;;;8.02;4.60;;;16.70;99.90;;;;;;5033540;28;20359;-77
2022/11/09 06:28:52;;;;;;;6.80;3.83;;;16.90;99.90;;;;;;5034030;28;20059;-78
2022/11/09 06:31:19;;;;;;;6.53;4.07;;;17.10;99.90;;;;;;5051780;28;20466;-78
2022/11/09 06:33:45;;;;;;;;;;;17.30;99.90;;;;;;5033428;28;20139;-83
2022/11/09 06:36:11;;;;;;;9.77;4.18;;;17.50;99.90;;;;;;5051638;28;19904;-72
2022/11/09 06:38:38;;;;;;;8.25;4.10;;;17.60;99.90;;;;;;5051157;28;20508;-70
2022/11/09 06:41:04;;;;;;;8.48;4.07;;;17.60;99.90;;;;;;5050697;28;20181;-72
2022/11/09 06:43:30;;;;;;;6.15;3.60;;;17.80;99.90;;;;;;5051301;28;20025;-70
2022/11/09 06:45:57;;;;;;;8.15;3.75;;;18.10;99.90;;;;;;5050590;28;20024;-72
2022/11/09 06:48:23;;;;;;;8.00;4.35;;;18.10;99.90;;;;;;5051017;28;20029;-67
2022/11/09 06:50:49;;;;;;;7.22;3.55;;;18.10;99.90;;;;;;5032812;28;20116;-71
2022/11/09 06:53:17;;;;;;;5.47;3.45;;;18.30;99.90;;;;;;5051100;28;20100;-70
2022/11/09 06:55:43;;;;;;;6.90;3.45;;;18.30;99.90;;;;;;5050930;28;20078;-73
2022/11/09 06:58:14;;;;;;;5.32;2.78;;;18.40;99.90;;;;;;5050662;28;20021;-72
2022/11/09 07:00:41;;;;;;;9.38;3.00;;;18.40;99.90;;;;;;5032145;28;20028;-71
2022/11/09 07:03:12;;;;;;;7.70;3.70;;;18.50;99.90;;;;;;5032479;28;20021;-71
2022/11/09 07:05:38;;;;;;;6.95;3.10;;;18.70;99.90;;;;;;5051030;28;20029;-72
2022/11/09 07:08:05;;;;;;;5.13;2.85;;;19.10;99.90;;;;;;5050644;28;20048;-72
2022/11/09 07:10:31;;;;;;;5.45;3.25;;;19.30;99.90;;;;;;5035098;28;20061;-71
2022/11/09 07:13:02;;;;;;;6.88;3.10;;;19.70;99.90;;;;;;5054506;28;20025;-68
2022/11/09 07:15:28;;;;;;;6.40;3.55;;;19.90;99.90;;;;;;5054331;28;20441;-73
2022/11/09 07:17:59;;;;;;;9.18;3.35;;;19.90;99.90;;;;;;5054787;28;20363;-74
2022/11/09 07:20:25;;;;;;;9.48;3.17;;;20.20;99.90;;;;;;5049067;28;20053;-71
2022/11/09 07:22:51;;;;;;;8.65;2.88;;;20.60;99.90;;;;;;5057025;28;20051;-72
2022/11/09 07:25:18;;;;;;;12.23;3.10;;;20.70;99.90;;;;;;5056640;28;20017;-71
2022/11/09 07:27:44;;;;;;;5.47;3.28;;;20.60;99.90;;;;;;5074712;28;20093;-71
2022/11/09 07:30:11;;;;;;;7.93;3.42;;;20.50;99.90;;;;;;5056735;28;20083;-70
2022/11/09 07:32:38;;;;;;;;;;;20.40;99.90;;;;;;5075127;28;20033;-71
2022/11/09 07:35:05;;;;;;;8.05;3.10;;;20.40;99.90;;;;;;5074052;28;19946;-71
2022/11/09 07:37:31;;;;;;;5.65;3.17;;;20.20;99.90;;;;;;5074370;28;20032;-71
2022/11/09 07:39:58;;;;;;;;;;;20.10;99.90;;;;;;5074697;28;20510;-71
2022/11/09 07:42:24;;;;;;;5.80;3.05;;;19.80;99.90;;;;;;5074635;28;20003;-73
2022/11/09 07:44:51;;;;;;;6.65;3.03;;;19.70;99.90;;;;;;5074645;28;20078;-73
2022/11/09 07:47:19;;;;;;;9.00;3.22;;;19.70;99.90;;;;;;5074205;28;20037;-71
2022/11/09 07:49:46;;;;;;;7.18;3.20;;;19.50;99.90;;;;;;5073792;28;20101;-72
2022/11/09 07:52:14;;;;;;;7.53;2.85;;;19.50;99.90;;;;;;5074051;28;20032;-71
2022/11/09 07:54:41;;;;;;;10.10;3.08;;;19.70;99.90;;;;;;5073828;28;20468;-73
2022/11/09 07:57:07;;;;;;;8.05;2.90;;;19.80;99.90;;;;;;5074932;28;20141;-71
2022/11/09 07:59:33;;;;;;;8.35;3.28;;;19.90;99.90;;;;;;5055450;28;20500;-72
2022/11/09 08:01:59;;;;;;;9.73;2.88;;;20.00;99.90;;;;;;5073363;28;20028;-73
2022/11/09 08:04:25;;;;;;;6.68;2.60;;;19.90;99.90;;;;;;5073478;28;20575;-71
2022/11/09 08:06:52;;;;;;;7.13;2.80;;;19.90;99.90;;;;;;5073393;28;20044;-72
2022/11/09 08:09:18;;;;;;;;;;;20.00;99.90;;;;;;5073979;28;20471;-72
2022/11/09 08:11:44;;;;;;;8.10;2.78;;;20.10;99.90;;;;;;5073857;28;19904;-72
2022/11/09 08:14:10;;;;;;;7.80;2.47;;;20.30;99.90;;;;;;5073610;28;20082;-72
2022/11/09 08:16:36;;;;;;;8.07;3.00;;;20.30;99.90;;;;;;5055716;28;20107;-73
2022/11/09 08:19:07;;;;;;;8.18;2.72;;;20.40;99.90;;;;;;5073336;28;20039;-72
2022/11/09 08:21:35;;;;;;;8.52;2.83;;;20.40;99.90;;;;;;5072420;28;20059;-74
2022/11/09 08:24:01;;;;;;;6.45;2.50;;;20.50;99.90;;;;;;5073132;28;20330;-74
2022/11/09 08:26:27;;;;;;;5.65;2.25;;;20.60;99.90;;;;;;5055088;28;20510;-72
2022/11/09 08:28:54;;;;;;;7.95;2.47;;;20.70;99.90;;;;;;5059230;28;20024;-71
2022/11/09 08:31:26;;;;;;;6.32;2.42;;;20.70;99.90;;;;;;5092230;28;20028;-74
2022/11/09 08:33:52;;;;;;;10.32;2.53;;;20.90;99.90;;;;;;5073846;28;20114;-72
2022/11/09 08:36:19;;;;;;;8.48;3.05;;;21.20;99.90;;;;;;5094070;28;20107;-72
2022/11/09 08:38:46;;;;;;;9.18;2.92;;;21.30;99.90;;;;;;5093512;28;20032;-73
2022/11/09 08:41:13;;;;;;;9.38;3.47;;;21.20;99.90;;;;;;5075136;28;20032;-72
2022/11/09 08:43:39;;;;;;;7.40;2.83;;;21.20;99.90;;;;;;5093233;28;20032;-73
2022/11/09 08:46:05;;;;;;;8.98;2.50;;;21.30;99.90;;;;;;5093645;28;20032;-71
2022/11/09 08:48:32;;;;;;;9.13;2.65;;;21.20;99.90;;;;;;5092863;28;20032;-72
2022/11/09 08:51:01;;;;;;;6.95;2.42;;;21.10;99.90;;;;;;5074342;28;20027;-72
2022/11/09 08:53:28;;;;;;;7.60;3.05;;;21.20;99.90;;;;;;5092268;28;20027;-72
2022/11/09 08:55:54;;;;;;;6.63;2.70;;;21.20;99.90;;;;;;5092512;28;20559;-74
2022/11/09 08:58:21;;;;;;;9.25;3.00;;;21.20;99.90;;;;;;5074501;28;20023;-73
2022/11/09 09:00:47;;;;;;;;;;;21.20;99.90;;;;;;5074734;28;20081;-73
2022/11/09 09:03:13;;;;;;;6.93;2.47;;;21.40;99.90;;;;;;5092580;28;19969;-74
2022/11/09 09:05:39;;;;;;;9.07;2.67;;;21.60;99.90;;;;;;5092790;28;20028;-73
2022/11/09 09:08:06;;;;;;;6.82;2.45;;;21.60;99.90;;;;;;5092956;28;20554;-73
2022/11/09 09:10:34;;;;;;;10.95;3.03;;;21.80;99.90;;;;;;5092596;28;20043;-74
2022/11/09 09:13:02;;;;;;;11.70;2.90;;;22.00;99.90;;;;;;5073991;28;20035;-73
2022/11/09 09:15:28;;;;;;;6.95;2.53;;;22.10;99.90;;;;;;5092801;28;20020;-72
2022/11/09 09:18:01;;;;;;;7.13;2.55;;;22.10;99.90;;;;;;5074349;28;20142;-71
2022/11/09 09:20:28;;;;;;;7.78;2.58;;;22.10;99.90;;;;;;5091969;28;20040;-72
2022/11/09 09:22:58;;;;;;;6.32;2.25;;;22.20;99.90;;;;;;5092510;28;20047;-73
2022/11/09 09:25:24;;;;;;;7.28;2.35;;;22.40;99.90;;;;;;5092567;28;20031;-72
2022/11/09 09:27:50;;;;;;;;;;;22.60;99.90;;;;;;5093090;28;20102;-73
2022/11/09 09:30:17;;;;;;;7.45;2.03;;;22.80;99.90;;;;;;5092342;28;20368;-73
2022/11/09 09:32:43;;;;;;;13.13;3.10;;;22.90;99.90;;;;;;5079542;28;20052;-73
2022/11/09 09:35:09;;;;;;;9.52;2.58;;;22.20;99.90;;;;;;5072196;28;20028;-72
2022/11/09 09:37:35;;;;;;;7.40;1.67;;;22.30;99.90;;;;;;5065649;28;20111;-72
2022/11/09 09:40:01;;;;;;;9.30;1.92;;;22.40;99.90;;;;;;5092374;28;20157;-72
2022/11/09 09:42:34;;;;;;;8.68;1.92;;;22.60;99.90;;;;;;5092359;28;20024;-71
2022/11/09 09:45:03;;;;;;;9.50;1.95;;;22.60;99.90;;;;;;5092793;28;20027;-73
2022/11/09 09:47:44;;;;;;;9.52;1.85;;;22.50;99.90;;;;;;5056476;28;20039;-72
2022/11/09 09:50:24;;;;;;;5.90;1.63;;;22.40;99.90;;;;;;5072222;28;20115;-70
2022/11/09 09:53:12;;;;;;;9.75;1.90;;;22.20;99.90;;;;;;5054128;28;20039;-74
2022/11/09 09:55:43;;;;;;;10.20;2.42;;;22.30;99.90;;;;;;5071579;28;20028;-72
2022/11/09 09:58:17;;;;;;;9.70;2.60;;;22.50;99.90;;;;;;5071360;28;20603;-72
2022/11/09 10:00:44;;;;;;;8.60;1.83;;;22.50;99.90;;;;;;5053071;28;20116;-72
2022/11/09 10:03:17;;;;;;;9.52;2.20;;;22.70;99.90;;;;;;5085324;28;20108;-72
2022/11/09 10:06:22;;;;;;;6.63;2.60;;;23.00;99.90;;;;;;5077852;28;20020;-71
2022/11/09 10:09:02;;;;;;;6.78;2.03;;;23.10;99.90;;;;;;5085306;28;20488;-73
2022/11/09 10:11:55;;;;;;;12.73;2.47;;;23.10;99.90;;;;;;5077356;28;20048;-73
2022/11/09 10:14:36;;;;;;;7.97;2.45;;;23.20;99.90;;;;;;5070948;28;20020;-71
2022/11/09 10:17:39;;;;;;;10.23;2.50;;;23.30;99.90;;;;;;5071142;28;20421;-72
2022/11/09 10:20:32;;;;;;;6.57;2.20;;;23.50;99.90;;;;;;5070824;28;20056;-69
2022/11/09 10:23:36;;;;;;;13.05;2.67;;;23.70;99.90;;;;;;5053656;28;20028;-75
2022/11/09 10:26:10;;;;;;;10.23;2.50;;;23.90;99.90;;;;;;5071073;28;20111;-75
2022/11/09 10:28:41;;;;;;;7.80;2.22;;;23.90;99.90;;;;;;5053470;28;20071;-74
2022/11/09 10:31:17;;;;;;;12.20;2.05;;;23.80;99.90;;;;;;5071214;28;20056;-75
2022/11/09 10:33:48;;;;;;;6.00;2.10;;;23.90;99.90;;;;;;5070790;28;20040;-74
2022/11/09 10:36:26;;;;;;;13.50;2.22;;;24.00;99.90;;;;;;5071019;28;20366;-74
2022/11/09 10:38:55;;;;;;;9.68;2.08;;;23.90;99.90;;;;;;5070894;28;20128;-75
2022/11/09 10:41:38;;;;;;;8.73;2.70;;;23.70;99.90;;;;;;5070287;28;20024;-73
2022/11/09 10:44:18;;;;;;;9.07;2.10;;;23.80;99.90;;;;;;5070506;28;20102;-74
2022/11/09 10:47:08;;;;;;;10.95;2.50;;;23.90;99.90;;;;;;5073956;28;20472;-75
2022/11/09 10:49:41;;;;;;;18.60;7.72;;;24.00;99.90;;;;;;5074341;28;20540;-75
2022/11/09 10:52:38;;;;;;;7.70;2.40;;;23.80;99.90;;;;;;5074337;28;20449;-75
2022/11/09 10:55:35;;;;;;;12.20;2.67;;;23.80;99.90;;;;;;5074613;28;20089;-74
2022/11/09 10:58:22;;;;;;;7.30;1.85;;;23.80;99.90;;;;;;5073926;28;20060;-73
2022/11/09 11:01:24;;;;;;;13.23;2.20;;;23.60;99.90;;;;;;5073720;28;20085;-73
2022/11/09 11:03:56;;;;;;;12.05;2.65;;;23.50;99.90;;;;;;5070414;28;20024;-74
2022/11/09 11:06:22;;;;;;;7.30;2.00;;;23.30;99.90;;;;;;5076786;28;20046;-73
2022/11/09 11:09:04;;;;;;;6.03;1.80;;;23.30;99.90;;;;;;5094380;28;20024;-73
2022/11/09 11:11:32;;;;;;;11.73;2.20;;;23.20;99.90;;;;;;5094307;28;20115;-72
2022/11/09 11:14:31;;;;;;;9.98;1.50;;;23.20;99.90;;;;;;5072998;28;20029;-72
2022/11/09 11:16:57;;;;;;;8.70;1.40;;;23.30;99.90;;;;;;5074271;28;20070;-73
2022/11/09 11:19:40;;;;;;;7.40;1.50;;;23.40;99.90;;;;;;5073778;28;20116;-72
2022/11/09 11:22:22;;;;;;;7.45;1.50;;;23.50;99.90;;;;;;5073663;28;20476;-73
2022/11/09 11:24:58;;;;;;;11.45;1.83;;;23.80;99.90;;;;;;5072781;28;20379;-75
2022/11/09 11:27:48;;;;;;;8.35;1.70;;;23.90;99.90;;;;;;5056320;28;20456;-75
2022/11/09 11:30:28;;;;;;;11.02;1.70;;;23.90;99.90;;;;;;5073791;28;20024;-74
2022/11/09 11:32:57;;;;;;;5.65;1.80;;;24.20;99.90;;;;;;5073931;28;20063;-73
2022/11/09 11:35:33;;;;;;;10.15;2.05;;;24.40;99.90;;;;;;5073795;28;20024;-78
2022/11/09 11:38:19;;;;;;;7.57;1.65;;;24.50;99.90;;;;;;5074356;28;20036;-71
2022/11/09 11:41:25;;;;;;;9.10;1.80;;;24.50;99.90;;;;;;5074126;28;20039;-68
2022/11/09 11:43:54;;;;;;;;;;;24.70;99.90;;;;;;5074859;28;20020;-69
2022/11/09 11:46:42;;;;;;;7.28;1.42;;;24.80;99.90;;;;;;5055649;28;19963;-69
2022/11/09 11:49:35;;;;;;;6.80;1.27;;;24.90;99.90;;;;;;5073807;28;20028;-69
2022/11/09 11:52:30;;;;;;;8.88;1.63;;;24.90;99.90;;;;;;5059699;28;20103;-69
2022/11/09 11:55:04;;;;;;;9.05;1.52;;;25.10;99.90;;;;;;5073590;28;20033;-70
2022/11/09 11:57:56;;;;;;;9.30;1.73;;;25.10;99.90;;;;;;5055224;28;20029;-70
2022/11/09 12:00:23;;;;;;;6.90;1.52;;;24.90;99.90;;;;;;5073991;28;20158;-69
2022/11/09 12:03:13;;;;;;;6.70;1.40;;;24.70;99.90;;;;;;5073703;28;20117;-69
2022/11/09 12:06:09;;;;;;;7.35;1.50;;;24.50;99.90;;;;;;5072217;28;20424;-69
2022/11/09 12:08:51;;;;;;;7.45;1.55;;;24.60;99.90;;;;;;4991641;28;20053;-69
2022/11/09 12:11:53;;;;;;;8.32;1.80;;;24.50;99.90;;;;;;4991601;28;20081;-68
2022/11/09 12:14:32;;;;;;;6.93;1.75;;;24.20;99.90;;;;;;4991297;28;20036;-70
2022/11/09 12:17:31;;;;;;;7.68;1.60;;;24.10;99.90;;;;;;4991444;28;20030;-72
2022/11/09 12:20:09;;;;;;;7.32;1.60;;;24.20;99.90;;;;;;4975456;28;20188;-71
2022/11/09 12:22:58;;;;;;;8.27;1.60;;;24.10;99.90;;;;;;4991898;28;20435;-73
2022/11/09 12:25:49;;;;;;;12.05;2.10;;;24.10;99.90;;;;;;4992158;28;20049;-73
2022/11/09 12:28:49;;;;;;;7.22;1.45;;;24.10;99.90;;;;;;4992297;28;20494;-71
2022/11/09 12:31:46;;;;;;;11.15;2.00;;;24.30;99.90;;;;;;4991808;28;20062;-72
2022/11/09 12:34:36;;;;;;;8.77;1.83;;;24.50;99.90;;;;;;4991661;28;20030;-73
2022/11/09 12:37:34;;;;;;;7.15;1.45;;;24.60;99.90;;;;;;4983146;28;20042;-84
2022/11/09 12:40:22;;;;;;;8.20;1.42;;;24.70;99.90;;;;;;4991664;28;20027;-83
2022/11/09 12:43:04;;;;;;;15.05;1.88;;;24.70;99.90;;;;;;4992172;28;20457;-83
2022/11/09 12:45:34;;;;;;;9.82;1.30;;;24.70;99.90;;;;;;5036697;28;20041;-81
2022/11/09 12:48:23;;;;;;;8.82;1.90;;;24.80;99.90;;;;;;5055050;28;20036;-81
2022/11/09 12:50:50;;;;;;;14.02;1.83;;;24.60;99.90;;;;;;5072335;28;20084;-81
2022/11/09 12:53:18;;;;;;;8.95;1.55;;;24.70;99.90;;;;;;5073392;28;20036;-82
2022/11/09 12:56:05;;;;;;;6.93;1.38;;;24.70;99.90;;;;;;5073536;28;20021;-82
2022/11/09 12:58:34;;;;;;;13.50;2.08;;;24.80;99.90;;;;;;5073291;28;20056;-84
2022/11/09 13:01:03;;;;;;;9.13;1.55;;;24.40;99.90;;;;;;5054283;28;20056;-84
2022/11/09 13:03:36;;;;;;;6.03;1.60;;;24.40;99.90;;;;;;5072936;28;20452;-84
2022/11/09 13:06:23;;;;;;;11.52;2.20;;;24.40;99.90;;;;;;5072924;28;20089;-82
2022/11/09 13:12:33;;;;;;;5.55;1.80;;;24.20;99.90;;;;;;5030906;28;20044;-83
2022/11/09 13:15:25;;;;;;;15.93;1.75;;;24.20;99.90;;;;;;5014028;28;20171;-83
2022/11/09 13:18:20;;;;;;;10.50;1.75;;;24.00;99.90;;;;;;5031448;28;20543;-83
2022/11/09 13:20:49;;;;;;;8.73;1.80;;;24.00;99.90;;;;;;5031201;28;20081;-83
2022/11/09 13:23:34;;;;;;;12.55;2.40;;;24.10;99.90;;;;;;5031588;28;20199;-83
2022/11/09 13:26:02;;;;;;;9.63;2.10;;;24.00;99.90;;;;;;5087377;22;20044;-83
2022/11/09 13:28:34;;;;;;;13.93;3.13;;;24.00;99.90;;;;;;5093430;28;20062;-85
2022/11/09 13:31:00;;;;;;;9.75;2.28;;;24.00;99.90;;;;;;5093916;28;20095;-84
2022/11/09 13:33:27;;;;;;;9.15;2.20;;;23.90;99.90;;;;;;5093280;28;20035;-86
2022/11/09 13:35:57;;;;;;;8.98;2.35;;;23.90;99.90;;;;;;5092390;28;20105;-83
2022/11/09 13:38:27;;;;;;;14.48;2.75;;;24.00;99.90;;;;;;5093391;28;20111;-83